Guemes, Washington
Current Conditions -  °F | °C
As of 11:56 PM on Sunday 23 Nov 2014 (Local Time) from KNUW Reporting Station
Broken Clouds Broken Clouds  
Wind Chill: 45°   Ceiling: 8000
Heat Index: 49°   Visibility: 10mi
Dew Point: 43°   Wind: 9mph
Humidity: 80%   Direction: 160°SSE
Pressure: 30.35"   Gusts: NA
Location:  48.4652°N, 122.617°W
Report Text: KNUW 240756Z 16008KT 10SM SCT040 BKN080 09/06 A3035 RMK AO2 SLP282 T00940061 401330056 $
Loading
Personal Weather Stations






























Interactive Weather Map New forecast layout! Learn more

10-Day Weather Forecast

Advertisements
Track Severe Weather on mobile